Time;durP1;ratioP1;P1;durP2;ratioP2;P2;SDS_P1;SDS_P2;PMS_P1;PMS_P2;Temp;Humidity;BMP_temperature;BMP_pressure;BME280_temperature;BME280_humidity;BME280_pressure;Samples;Min_cycle;Max_cycle;Signal;HPM_P1;HPM_P2
2022/11/22 00:00:38;;;;;;;18.80;4.28;;;6.60;90.60;;;;;;5047108;28;20037;-71
2022/11/22 00:03:03;;;;;;;17.80;4.80;;;6.60;90.50;;;;;;5047904;28;20029;-73
2022/11/22 00:05:29;;;;;;;17.40;5.35;;;6.60;90.40;;;;;;5055024;28;20384;-72
2022/11/22 00:07:55;;;;;;;15.73;4.30;;;6.50;90.30;;;;;;5054306;28;20040;-72
2022/11/22 00:10:20;;;;;;;21.20;5.00;;;6.50;90.30;;;;;;5056968;28;20067;-72
2022/11/22 00:12:46;;;;;;;15.70;4.20;;;6.50;90.20;;;;;;5057956;28;20043;-73
2022/11/22 00:15:12;;;;;;;20.67;4.50;;;6.50;90.10;;;;;;5051208;28;20100;-75
2022/11/22 00:17:38;;;;;;;16.60;3.90;;;6.50;90.10;;;;;;5053884;28;20098;-74
2022/11/22 00:20:06;;;;;;;18.02;4.65;;;6.50;90.10;;;;;;5053737;28;20395;-74
2022/11/22 00:22:32;;;;;;;18.42;4.82;;;6.60;90.00;;;;;;5056801;28;20041;-74
2022/11/22 00:24:58;;;;;;;17.88;4.10;;;6.60;89.90;;;;;;5054746;28;20029;-74
2022/11/22 00:27:24;;;;;;;18.52;4.63;;;6.60;89.80;;;;;;5054354;28;20113;-74
2022/11/22 00:29:50;;;;;;;21.58;4.82;;;6.70;89.60;;;;;;5054163;28;20029;-73
2022/11/22 00:32:15;;;;;;;15.90;3.83;;;6.70;89.40;;;;;;5045791;28;20388;-73
2022/11/22 00:34:41;;;;;;;19.33;4.40;;;6.70;89.20;;;;;;5056182;28;20068;-72
2022/11/22 00:37:07;;;;;;;19.08;4.30;;;6.60;89.00;;;;;;5044872;28;20041;-72
2022/11/22 00:39:33;;;;;;;17.33;5.13;;;6.60;89.00;;;;;;5055602;28;20504;-72
2022/11/22 00:41:59;;;;;;;18.33;4.65;;;6.60;89.00;;;;;;5051379;28;20091;-73
2022/11/22 00:44:24;;;;;;;15.60;3.88;;;6.60;89.10;;;;;;5048480;28;20033;-72
2022/11/22 00:46:50;;;;;;;17.60;4.07;;;6.60;89.10;;;;;;5047626;28;20079;-73
2022/11/22 00:49:16;;;;;;;14.55;3.55;;;6.50;89.10;;;;;;5049925;28;20377;-73
2022/11/22 00:51:41;;;;;;;13.85;3.95;;;6.40;89.10;;;;;;5055903;28;20037;-73
2022/11/22 00:54:07;;;;;;;16.00;4.18;;;6.30;89.20;;;;;;5052013;28;20037;-72
2022/11/22 00:56:34;;;;;;;14.80;3.65;;;6.30;89.20;;;;;;5053649;28;20361;-72
2022/11/22 00:59:00;;;;;;;15.27;3.40;;;6.20;89.20;;;;;;5046568;28;20807;-73
2022/11/22 01:01:25;;;;;;;17.40;3.42;;;6.20;89.20;;;;;;5053896;28;20060;-73
2022/11/22 01:03:51;;;;;;;18.60;4.35;;;6.20;89.20;;;;;;5051756;28;20129;-72
2022/11/22 01:06:17;;;;;;;14.52;3.67;;;6.10;89.20;;;;;;5052175;28;20040;-73
2022/11/22 01:08:42;;;;;;;17.33;3.75;;;6.10;89.30;;;;;;5070680;28;20091;-72
2022/11/22 01:11:09;;;;;;;16.77;4.43;;;6.10;89.20;;;;;;5052712;28;20113;-73
2022/11/22 01:13:34;;;;;;;13.93;3.25;;;6.10;89.30;;;;;;5050899;28;20068;-73
2022/11/22 01:16:06;;;;;;;19.95;4.25;;;6.00;89.40;;;;;;5051643;28;20545;-73
2022/11/22 01:18:32;;;;;;;13.38;3.40;;;6.00;89.50;;;;;;5050117;28;20043;-73
2022/11/22 01:20:58;;;;;;;16.88;3.70;;;6.00;89.40;;;;;;5046112;28;20044;-72
2022/11/22 01:23:24;;;;;;;15.15;3.60;;;6.00;89.30;;;;;;5056639;28;20060;-73
2022/11/22 01:25:50;;;;;;;18.60;4.13;;;5.90;89.30;;;;;;5056686;28;20383;-74
2022/11/22 01:28:16;;;;;;;15.77;3.78;;;5.90;89.40;;;;;;5052699;28;20178;-73
2022/11/22 01:30:42;;;;;;;16.10;3.40;;;5.90;89.40;;;;;;5051851;28;20418;-73
2022/11/22 01:33:09;;;;;;;12.18;3.92;;;5.90;89.40;;;;;;5055583;28;20459;-73
2022/11/22 01:35:35;;;;;;;17.30;3.67;;;5.90;89.40;;;;;;5046121;28;20033;-73
2022/11/22 01:38:01;;;;;;;15.25;4.15;;;5.80;89.40;;;;;;5045390;28;20063;-76
2022/11/22 01:40:27;;;;;;;19.45;3.80;;;5.80;89.50;;;;;;5049509;28;20072;-73
2022/11/22 01:42:55;;;;;;;15.00;3.55;;;5.70;89.60;;;;;;5062920;28;20025;-73
2022/11/22 01:45:42;;;;;;;15.15;3.95;;;5.70;89.60;;;;;;5057589;28;20479;-73
2022/11/22 01:48:11;;;;;;;15.38;3.58;;;5.70;89.70;;;;;;5045215;28;20564;-73
2022/11/22 01:50:40;;;;;;;15.63;4.03;;;5.60;89.80;;;;;;5064063;28;20179;-74
2022/11/22 01:53:11;;;;;;;13.63;3.45;;;5.60;89.90;;;;;;5046085;28;20029;-75
2022/11/22 01:55:37;;;;;;;16.17;3.55;;;5.60;90.00;;;;;;5051100;28;20038;-74
2022/11/22 01:58:03;;;;;;;12.23;3.33;;;5.60;90.00;;;;;;5051810;28;20487;-73
2022/11/22 02:00:29;;;;;;;12.70;3.67;;;5.60;90.00;;;;;;5052523;28;20045;-73
2022/11/22 02:02:59;;;;;;;18.70;3.65;;;5.50;90.00;;;;;;5055492;28;20029;-73
2022/11/22 02:05:28;;;;;;;15.93;4.10;;;5.50;90.20;;;;;;5048829;28;20037;-72
2022/11/22 02:08:08;;;;;;;16.58;3.58;;;5.50;90.10;;;;;;5046219;28;20040;-72
2022/11/22 02:10:37;;;;;;;11.30;3.45;;;5.50;90.20;;;;;;5046089;28;20029;-73
2022/11/22 02:13:03;;;;;;;17.85;3.72;;;5.40;90.10;;;;;;5043598;28;20033;-73
2022/11/22 02:15:29;;;;;;;14.30;3.55;;;5.50;90.20;;;;;;5050884;28;20210;-73
2022/11/22 02:17:57;;;;;;;13.18;3.10;;;5.40;90.10;;;;;;5050649;28;20060;-72
2022/11/22 02:20:23;;;;;;;11.48;3.00;;;5.40;90.00;;;;;;5061606;28;20088;-74
2022/11/22 02:23:02;;;;;;;12.05;3.40;;;5.40;90.10;;;;;;5051101;28;20029;-75
2022/11/22 02:25:39;;;;;;;15.48;3.33;;;5.40;90.20;;;;;;5049566;28;20025;-74
2022/11/22 02:28:10;;;;;;;16.00;3.70;;;5.40;90.10;;;;;;5046918;28;20052;-73
2022/11/22 02:30:36;;;;;;;9.95;2.83;;;5.30;90.20;;;;;;5045699;28;20401;-73
2022/11/22 02:33:02;;;;;;;16.35;3.22;;;5.30;90.30;;;;;;5046186;28;20164;-73
2022/11/22 02:35:29;;;;;;;8.00;2.78;;;5.30;90.20;;;;;;5063379;28;20131;-74
2022/11/22 02:38:01;;;;;;;13.07;3.42;;;5.30;90.20;;;;;;5054791;28;20497;-74
2022/11/22 02:40:31;;;;;;;12.63;3.03;;;5.20;90.20;;;;;;5048938;28;20079;-73
2022/11/22 02:43:07;;;;;;;15.00;3.05;;;5.20;90.20;;;;;;5047505;28;20059;-73
2022/11/22 02:45:33;;;;;;;12.07;3.40;;;5.20;90.20;;;;;;5063059;28;20120;-72
2022/11/22 02:48:12;;;;;;;9.88;2.80;;;5.20;90.20;;;;;;5046808;28;20119;-72
2022/11/22 02:50:38;;;;;;;13.32;3.42;;;5.10;90.20;;;;;;5051552;28;20040;-73
2022/11/22 02:53:05;;;;;;;12.82;3.05;;;5.20;90.20;;;;;;5064086;28;20150;-72
2022/11/22 02:55:31;;;;;;;11.73;2.75;;;5.10;90.20;;;;;;5046907;28;20136;-74
2022/11/22 02:57:57;;;;;;;14.95;3.28;;;5.10;90.30;;;;;;5049248;28;21258;-73
2022/11/22 03:00:23;;;;;;;14.27;2.88;;;5.10;90.30;;;;;;5048682;28;20110;-74
2022/11/22 03:02:48;;;;;;;11.55;3.38;;;5.10;90.20;;;;;;5049896;28;20059;-73
2022/11/22 03:05:14;;;;;;;11.57;3.03;;;5.10;90.30;;;;;;5052441;28;20431;-73
2022/11/22 03:07:40;;;;;;;11.27;3.05;;;5.10;90.30;;;;;;5046358;28;20017;-73
2022/11/22 03:10:06;;;;;;;11.55;2.97;;;5.10;90.30;;;;;;5048958;28;20380;-73
2022/11/22 03:12:31;;;;;;;10.93;2.78;;;5.10;90.50;;;;;;5046928;28;20428;-73
2022/11/22 03:14:57;;;;;;;9.07;3.15;;;5.00;90.40;;;;;;5051671;28;20028;-74
2022/11/22 03:17:23;;;;;;;10.35;2.70;;;5.00;90.50;;;;;;5050035;28;20049;-74
2022/11/22 03:19:48;;;;;;;12.00;2.70;;;5.00;90.50;;;;;;5054235;28;20469;-74
2022/11/22 03:22:14;;;;;;;10.27;2.70;;;5.00;90.60;;;;;;5047369;28;20033;-74
2022/11/22 03:24:40;;;;;;;13.18;3.40;;;5.00;90.50;;;;;;5051672;28;20516;-75
2022/11/22 03:27:06;;;;;;;12.02;2.60;;;5.00;90.60;;;;;;5062301;28;20037;-73
2022/11/22 03:29:31;;;;;;;8.05;2.42;;;5.00;90.60;;;;;;5046407;28;20437;-73
2022/11/22 03:31:57;;;;;;;14.90;3.28;;;5.00;90.60;;;;;;5044510;28;20361;-74
2022/11/22 03:34:22;;;;;;;11.45;3.25;;;5.00;90.60;;;;;;5053061;28;20032;-73
2022/11/22 03:36:48;;;;;;;12.38;3.30;;;5.00;90.50;;;;;;5045257;28;20464;-75
2022/11/22 03:39:14;;;;;;;11.32;2.38;;;5.00;90.40;;;;;;5047161;28;20036;-73
2022/11/22 03:41:40;;;;;;;11.80;2.70;;;5.00;90.40;;;;;;5052173;28;20051;-72
2022/11/22 03:44:06;;;;;;;7.60;2.90;;;4.90;90.50;;;;;;5052838;28;20061;-72
2022/11/22 03:46:31;;;;;;;11.10;2.65;;;4.90;90.50;;;;;;5046241;28;20044;-73
2022/11/22 03:48:57;;;;;;;9.85;2.53;;;5.00;90.50;;;;;;5052576;28;20691;-74
2022/11/22 03:51:23;;;;;;;12.98;3.05;;;4.90;90.40;;;;;;5053690;28;20328;-74
2022/11/22 03:53:48;;;;;;;11.52;3.33;;;4.90;90.50;;;;;;5053020;28;20032;-73
2022/11/22 03:56:14;;;;;;;9.68;2.83;;;5.00;90.60;;;;;;5048992;28;20455;-73
2022/11/22 03:58:40;;;;;;;12.82;3.03;;;4.90;90.50;;;;;;5053972;28;20112;-73
2022/11/22 04:01:05;;;;;;;13.70;3.15;;;4.90;90.40;;;;;;5051927;28;20044;-73
2022/11/22 04:03:31;;;;;;;14.88;3.25;;;4.90;90.60;;;;;;5059933;28;20036;-72
2022/11/22 04:05:57;;;;;;;12.55;2.75;;;4.90;90.60;;;;;;5047069;28;20036;-73
2022/11/22 04:08:22;;;;;;;12.27;2.90;;;4.90;90.60;;;;;;5049680;28;20052;-73
2022/11/22 04:10:49;;;;;;;11.90;3.08;;;4.90;90.60;;;;;;5049379;28;20116;-73
2022/11/22 04:13:15;;;;;;;12.27;2.80;;;4.90;90.60;;;;;;5055636;28;20472;-73
2022/11/22 04:15:40;;;;;;;11.60;2.75;;;4.80;90.60;;;;;;5065642;28;20388;-74
2022/11/22 04:18:09;;;;;;;12.63;3.28;;;4.80;90.60;;;;;;5064995;28;20036;-74
2022/11/22 04:23:21;;;;;;;10.25;3.22;;;4.90;90.70;;;;;;5046864;28;20040;-73
2022/11/22 04:25:49;;;;;;;11.55;3.10;;;4.90;90.80;;;;;;5051772;28;20120;-73
2022/11/22 04:28:17;;;;;;;10.85;2.83;;;5.00;90.70;;;;;;5051640;28;20071;-73
2022/11/22 04:33:27;;;;;;;14.30;3.30;;;5.10;90.50;;;;;;5049069;28;20044;-73
2022/11/22 04:35:54;;;;;;;13.27;3.83;;;5.10;90.50;;;;;;5044166;28;20056;-73
2022/11/22 04:38:20;;;;;;;11.55;3.00;;;5.10;90.40;;;;;;5045418;28;20037;-73
2022/11/22 04:40:45;;;;;;;10.25;3.10;;;5.10;90.20;;;;;;5054815;28;20043;-74
2022/11/22 04:46:12;;;;;;;11.60;3.25;;;5.10;90.10;;;;;;5050458;28;20528;-75
2022/11/22 04:48:38;;;;;;;12.63;3.33;;;5.10;90.20;;;;;;5048121;28;21068;-74
2022/11/22 04:53:49;;;;;;;14.20;2.67;;;5.10;90.20;;;;;;5052843;28;20048;-73
2022/11/22 04:56:15;;;;;;;13.25;3.25;;;5.10;90.20;;;;;;5050184;28;20033;-74
2022/11/22 04:58:41;;;;;;;14.45;2.78;;;5.20;90.10;;;;;;5049319;28;20078;-74
2022/11/22 05:01:06;;;;;;;8.82;2.60;;;5.20;90.10;;;;;;5057465;28;20117;-74
2022/11/22 05:03:33;;;;;;;15.75;3.35;;;5.20;90.10;;;;;;5051680;28;20468;-74
2022/11/22 05:06:04;;;;;;;16.60;3.72;;;5.30;90.00;;;;;;5057256;28;20053;-74
2022/11/22 05:08:30;;;;;;;12.25;2.85;;;5.30;89.90;;;;;;5054526;28;20056;-73
2022/11/22 05:10:56;;;;;;;8.88;2.65;;;5.30;89.90;;;;;;5052134;28;20048;-74
2022/11/22 05:13:42;;;;;;;15.63;3.83;;;5.30;89.70;;;;;;5045990;28;20041;-74
2022/11/22 05:16:11;;;;;;;12.02;2.92;;;5.40;89.70;;;;;;5042508;28;20036;-74
2022/11/22 05:18:37;;;;;;;10.95;2.78;;;5.40;89.50;;;;;;5053378;28;20527;-74
2022/11/22 05:21:11;;;;;;;12.00;3.03;;;5.40;89.40;;;;;;5053818;28;20033;-74
2022/11/22 05:23:55;;;;;;;9.07;3.38;;;5.40;89.30;;;;;;5044291;28;20110;-73
2022/11/22 05:26:22;;;;;;;11.80;3.90;;;5.40;89.30;;;;;;5047018;28;20037;-73
2022/11/22 05:28:48;;;;;;;11.15;3.28;;;5.40;89.20;;;;;;5059721;28;20047;-74
2022/11/22 05:31:22;;;;;;;10.07;2.72;;;5.40;89.30;;;;;;5040930;28;20079;-74
2022/11/22 05:33:50;;;;;;;11.73;3.25;;;5.40;89.20;;;;;;5043029;28;20205;-74
2022/11/22 05:36:16;;;;;;;10.48;2.60;;;5.30;89.20;;;;;;5045860;28;20396;-74
2022/11/22 05:38:41;;;;;;;10.98;3.35;;;5.30;89.30;;;;;;5048941;28;20044;-74
2022/11/22 05:41:10;;;;;;;8.80;2.78;;;5.30;89.30;;;;;;5050812;28;20029;-74
2022/11/22 05:43:37;;;;;;;11.98;2.90;;;5.30;89.30;;;;;;5046282;28;20032;-73
2022/11/22 05:46:11;;;;;;;13.30;3.20;;;5.30;89.40;;;;;;5047715;28;20037;-73
2022/11/22 05:48:38;;;;;;;12.83;3.40;;;5.30;89.40;;;;;;5048147;28;20033;-74
2022/11/22 05:51:09;;;;;;;13.32;3.63;;;5.30;89.60;;;;;;5050539;28;20029;-74
2022/11/22 05:53:36;;;;;;;13.85;3.30;;;5.30;89.50;;;;;;5051631;28;20037;-73
2022/11/22 05:56:10;;;;;;;11.73;3.67;;;5.40;89.60;;;;;;5050692;28;20120;-73
2022/11/22 05:58:37;;;;;;;12.82;3.40;;;5.30;89.60;;;;;;5049790;28;20131;-73
2022/11/22 06:01:07;;;;;;;12.23;3.63;;;5.30;89.60;;;;;;5054734;28;20539;-73
2022/11/22 06:03:34;;;;;;;10.82;3.20;;;5.40;89.50;;;;;;5051159;28;20112;-73
2022/11/22 06:06:00;;;;;;;9.48;3.00;;;5.40;89.40;;;;;;5044490;28;20083;-72
2022/11/22 06:08:31;;;;;;;9.38;3.80;;;5.40;89.60;;;;;;5046622;28;20818;-72
2022/11/22 06:11:14;;;;;;;10.20;3.00;;;5.40;89.70;;;;;;5050165;28;20556;-74
2022/11/22 06:13:42;;;;;;;10.45;3.55;;;5.40;89.80;;;;;;5047203;28;20412;-75
2022/11/22 06:16:08;;;;;;;11.52;3.25;;;5.40;89.80;;;;;;5052127;28;20052;-74
2022/11/22 06:18:34;;;;;;;13.85;3.22;;;5.50;89.90;;;;;;5046642;28;20037;-73
2022/11/22 06:21:06;;;;;;;14.38;2.90;;;5.50;89.90;;;;;;5062946;28;20415;-73
2022/11/22 06:23:32;;;;;;;10.38;3.00;;;5.50;90.00;;;;;;5044369;28;20120;-74
2022/11/22 06:26:18;;;;;;;9.73;3.10;;;5.40;90.00;;;;;;5051280;28;20037;-74
2022/11/22 06:28:45;;;;;;;10.18;3.30;;;5.50;90.10;;;;;;5051832;28;20144;-75
2022/11/22 06:31:12;;;;;;;13.38;4.35;;;5.50;90.20;;;;;;5046247;28;20475;-73
2022/11/22 06:33:38;;;;;;;9.77;3.17;;;5.50;90.20;;;;;;5064396;28;20376;-72
2022/11/22 06:36:10;;;;;;;9.82;3.20;;;5.50;90.20;;;;;;5046318;28;20037;-73
2022/11/22 06:38:37;;;;;;;8.60;2.80;;;5.60;90.20;;;;;;5044665;28;20491;-73
2022/11/22 06:41:10;;;;;;;10.65;3.92;;;5.60;90.10;;;;;;5045474;28;20037;-73
2022/11/22 06:43:37;;;;;;;10.18;3.13;;;5.60;90.10;;;;;;5044837;28;20036;-72
2022/11/22 06:46:04;;;;;;;10.95;3.40;;;5.70;90.00;;;;;;5046215;28;20047;-72
2022/11/22 06:48:35;;;;;;;11.32;3.45;;;5.70;90.00;;;;;;5047975;28;20432;-73
2022/11/22 06:51:03;;;;;;;10.13;3.47;;;5.80;89.80;;;;;;5044879;28;20028;-76
2022/11/22 06:53:30;;;;;;;9.23;3.17;;;5.80;89.70;;;;;;5046282;28;20085;-73
2022/11/22 06:56:03;;;;;;;11.93;3.17;;;5.80;89.70;;;;;;5053525;28;20053;-72
2022/11/22 06:58:29;;;;;;;11.35;2.95;;;5.90;89.70;;;;;;5056729;28;20129;-73
2022/11/22 07:01:13;;;;;;;10.95;3.55;;;5.90;89.50;;;;;;5048825;28;20557;-73
2022/11/22 07:03:40;;;;;;;8.63;3.10;;;5.90;89.50;;;;;;5054397;28;20048;-73
2022/11/22 07:06:08;;;;;;;11.35;3.60;;;5.80;89.60;;;;;;5045331;28;20036;-74
2022/11/22 07:08:34;;;;;;;10.35;3.50;;;5.90;89.40;;;;;;5052959;28;20136;-73
2022/11/22 07:11:09;;;;;;;10.07;3.50;;;5.90;89.30;;;;;;5048788;28;20040;-73
2022/11/22 07:13:35;;;;;;;13.65;3.88;;;5.90;89.30;;;;;;5040380;28;20051;-74
2022/11/22 07:16:02;;;;;;;12.27;3.08;;;5.90;89.40;;;;;;5048985;28;20445;-74
2022/11/22 07:18:29;;;;;;;11.05;3.35;;;6.00;89.20;;;;;;5049889;28;20033;-75
2022/11/22 07:21:04;;;;;;;8.75;2.70;;;6.10;89.60;;;;;;5047352;28;20040;-75
2022/11/22 07:23:29;;;;;;;;;;;6.10;89.10;;;;;;5050946;28;20060;-75
2022/11/22 07:25:55;;;;;;;7.45;2.83;;;6.10;89.00;;;;;;5053220;28;20447;-74
2022/11/22 07:28:21;;;;;;;11.35;3.42;;;6.10;89.10;;;;;;5048858;28;20113;-74
2022/11/22 07:30:47;;;;;;;13.20;3.67;;;6.10;89.00;;;;;;5045478;28;20052;-74
2022/11/22 07:33:13;;;;;;;10.85;3.55;;;6.10;89.10;;;;;;5046928;28;21625;-75
2022/11/22 07:35:38;;;;;;;12.82;3.35;;;6.10;89.30;;;;;;5048654;28;20089;-75
2022/11/22 07:38:04;;;;;;;11.32;3.83;;;6.00;89.50;;;;;;5049524;28;20042;-75
2022/11/22 07:40:30;;;;;;;11.05;3.90;;;6.10;89.70;;;;;;5043988;28;20060;-73
2022/11/22 07:42:56;;;;;;;10.48;3.88;;;6.10;89.90;;;;;;5049474;28;20040;-74
2022/11/22 07:45:22;;;;;;;10.13;3.20;;;6.10;89.90;;;;;;5046333;28;20045;-72
2022/11/22 07:47:47;;;;;;;13.85;3.00;;;6.10;89.80;;;;;;5041429;28;20055;-72
2022/11/22 07:50:13;;;;;;;14.30;4.13;;;6.10;89.80;;;;;;5046988;28;20552;-72
2022/11/22 07:52:39;;;;;;;10.73;3.63;;;6.20;89.80;;;;;;5063997;28;20043;-73
2022/11/22 07:55:05;;;;;;;10.02;3.15;;;6.20;89.80;;;;;;5045465;28;20175;-74
2022/11/22 07:57:31;;;;;;;14.98;3.40;;;6.20;89.70;;;;;;5046450;28;20393;-72
2022/11/22 07:59:57;;;;;;;8.73;3.90;;;6.20;89.60;;;;;;5046462;28;20037;-73
2022/11/22 08:02:24;;;;;;;11.50;3.75;;;6.30;89.60;;;;;;5046679;28;20032;-72
2022/11/22 08:04:50;;;;;;;10.35;3.53;;;6.40;89.40;;;;;;5037151;28;20028;-75
2022/11/22 08:07:16;;;;;;;11.27;5.00;;;6.40;89.20;;;;;;5040432;28;20071;-73
2022/11/22 08:09:41;;;;;;;11.18;4.03;;;6.50;89.10;;;;;;5038882;28;20120;-72
2022/11/22 08:12:07;;;;;;;11.20;5.75;;;6.50;89.00;;;;;;5036052;28;20132;-74
2022/11/22 08:14:33;;;;;;;9.07;3.67;;;6.50;88.90;;;;;;5038388;28;20357;-73
2022/11/22 08:16:58;;;;;;;10.63;3.90;;;6.50;88.70;;;;;;5039438;28;20103;-76
2022/11/22 08:19:24;;;;;;;10.07;3.90;;;6.50;88.80;;;;;;5037969;28;20029;-76
2022/11/22 08:21:50;;;;;;;12.93;5.10;;;6.50;88.80;;;;;;5038379;28;20033;-75
2022/11/22 08:24:16;;;;;;;14.88;5.35;;;6.50;88.90;;;;;;5037379;28;20033;-75
2022/11/22 08:26:42;;;;;;;10.88;5.15;;;6.50;88.80;;;;;;5047400;28;20507;-75
2022/11/22 08:29:10;;;;;;;9.27;4.07;;;6.60;88.80;;;;;;5042626;28;20158;-76
2022/11/22 08:31:36;;;;;;;10.40;4.65;;;6.60;88.80;;;;;;5042441;28;20049;-75
2022/11/22 08:34:02;;;;;;;16.00;8.60;;;6.60;88.70;;;;;;5042639;28;20037;-75
2022/11/22 08:36:28;;;;;;;11.80;3.30;;;6.70;88.70;;;;;;5049219;28;20037;-74
2022/11/22 08:38:53;;;;;;;10.63;3.95;;;6.70;88.50;;;;;;5042774;28;20037;-72
2022/11/22 08:41:19;;;;;;;10.20;3.60;;;6.70;88.40;;;;;;5040325;28;20384;-74
2022/11/22 08:43:45;;;;;;;12.10;4.50;;;6.70;88.30;;;;;;5048040;28;21151;-73
2022/11/22 08:46:10;;;;;;;14.18;4.85;;;6.60;88.50;;;;;;5042596;28;20036;-73
2022/11/22 08:48:37;;;;;;;10.50;4.10;;;6.60;88.60;;;;;;5048393;28;20048;-72
2022/11/22 08:51:08;;;;;;;11.18;4.25;;;6.60;88.60;;;;;;5044825;28;20029;-73
2022/11/22 08:53:35;;;;;;;12.63;3.63;;;6.60;88.70;;;;;;5040065;28;20029;-73
2022/11/22 08:56:03;;;;;;;11.45;3.95;;;6.60;88.90;;;;;;5049975;28;20594;-75
2022/11/22 08:58:30;;;;;;;12.38;4.13;;;6.60;88.80;;;;;;5036071;28;20187;-74
2022/11/22 09:00:56;;;;;;;10.82;4.53;;;6.80;89.10;;;;;;5046659;28;20071;-74
2022/11/22 09:03:22;;;;;;;11.32;4.35;;;7.00;89.00;;;;;;5040143;28;20340;-75
2022/11/22 09:05:48;;;;;;;12.15;4.63;;;7.30;88.50;;;;;;5041621;28;20430;-74
2022/11/22 09:08:13;;;;;;;11.35;3.67;;;7.50;87.50;;;;;;5045446;28;20116;-74
2022/11/22 09:10:39;;;;;;;8.88;4.05;;;7.60;86.70;;;;;;5052135;28;20433;-75
2022/11/22 09:13:05;;;;;;;9.82;3.42;;;7.80;86.80;;;;;;5041141;28;20120;-75
2022/11/22 09:15:30;;;;;;;11.85;3.95;;;7.90;86.00;;;;;;5044826;28;20044;-74
2022/11/22 09:18:01;;;;;;;14.07;4.05;;;7.90;85.50;;;;;;5056921;28;20087;-75
2022/11/22 09:20:27;;;;;;;11.80;4.82;;;7.90;85.60;;;;;;5045838;28;20340;-75
2022/11/22 09:22:52;;;;;;;16.23;4.93;;;7.80;85.70;;;;;;5051362;28;20476;-73
2022/11/22 09:25:18;;;;;;;13.02;4.70;;;7.80;85.90;;;;;;5049682;28;20116;-74
2022/11/22 09:27:44;;;;;;;9.38;4.35;;;7.70;85.90;;;;;;5048391;28;20084;-74
2022/11/22 09:30:10;;;;;;;14.00;5.05;;;7.60;86.10;;;;;;5044711;28;20087;-74
2022/11/22 09:32:36;;;;;;;12.75;4.40;;;7.60;86.20;;;;;;5040462;28;20059;-74
2022/11/22 09:35:01;;;;;;;11.75;3.90;;;7.70;86.20;;;;;;5039936;28;20059;-74
2022/11/22 09:37:27;;;;;;;13.18;5.03;;;7.70;86.20;;;;;;5051210;28;20048;-74
2022/11/22 09:39:53;;;;;;;12.88;4.38;;;7.70;86.20;;;;;;5046437;28;20029;-73
2022/11/22 09:42:43;;;;;;;12.80;5.05;;;7.80;86.20;;;;;;5033051;28;20174;-78
2022/11/22 09:45:33;;;;;;;8.93;3.88;;;7.80;85.90;;;;;;5048029;28;20087;-73
2022/11/22 09:48:37;;;;;;;12.13;3.67;;;7.80;85.90;;;;;;5047740;28;20374;-75
2022/11/22 09:51:14;;;;;;;11.90;4.25;;;7.70;85.80;;;;;;5050427;28;20140;-77
2022/11/22 09:53:54;;;;;;;8.98;3.42;;;7.80;86.20;;;;;;5039611;28;20383;-78
2022/11/22 09:56:23;;;;;;;13.95;3.38;;;7.80;86.00;;;;;;5040547;28;20091;-77
2022/11/22 09:58:54;;;;;;;7.38;3.53;;;7.80;85.90;;;;;;5040369;28;20148;-74
2022/11/22 10:01:27;;;;;;;7.65;3.28;;;7.80;85.90;;;;;;5040841;28;20025;-76
2022/11/22 10:04:12;;;;;;;7.53;2.95;;;8.00;85.90;;;;;;5043350;28;20322;-78
2022/11/22 10:06:51;;;;;;;8.18;3.15;;;8.10;85.90;;;;;;5044512;28;20037;-79
2022/11/22 10:09:42;;;;;;;8.10;2.80;;;8.20;85.40;;;;;;5045426;28;20473;-79
2022/11/22 10:12:33;;;;;;;7.60;2.60;;;8.20;85.20;;;;;;5044482;28;20037;-84
2022/11/22 10:15:20;;;;;;;6.15;2.63;;;8.20;85.00;;;;;;5053431;28;20043;-80
2022/11/22 10:17:53;;;;;;;6.97;2.65;;;8.10;84.90;;;;;;5044511;28;20183;-81
2022/11/22 10:20:24;;;;;;;6.82;2.33;;;8.10;85.40;;;;;;5048981;28;20208;-78
2022/11/22 10:22:50;;;;;;;7.05;2.58;;;8.10;85.10;;;;;;5057981;28;20395;-79
2022/11/22 10:25:38;;;;;;;6.53;2.38;;;8.10;85.30;;;;;;5044524;28;20508;-80
2022/11/22 10:28:19;;;;;;;5.47;2.35;;;8.10;85.20;;;;;;5046211;28;20025;-83
2022/11/22 10:31:30;;;;;;;6.95;2.30;;;8.20;85.20;;;;;;5049537;28;20037;-78
2022/11/22 10:34:25;;;;;;;3.47;2.17;;;8.20;85.10;;;;;;5045810;28;20108;-77
2022/11/22 10:37:14;;;;;;;5.53;2.50;;;8.30;85.10;;;;;;5056495;28;20548;-81
2022/11/22 10:39:39;;;;;;;7.15;2.65;;;8.30;84.80;;;;;;5049989;28;20378;-79
2022/11/22 10:42:28;;;;;;;7.28;2.30;;;8.40;85.00;;;;;;5046326;28;20127;-79
2022/11/22 10:45:24;;;;;;;4.32;2.25;;;8.40;84.80;;;;;;5038427;28;20056;-79
2022/11/22 10:48:03;;;;;;;5.55;2.17;;;8.40;84.60;;;;;;5039970;28;20045;-81
2022/11/22 10:51:11;;;;;;;7.38;2.40;;;8.40;84.70;;;;;;5042033;28;20033;-83
2022/11/22 10:54:14;;;;;;;4.75;2.17;;;8.40;84.80;;;;;;5048635;28;20036;-82
2022/11/22 10:57:14;;;;;;;5.25;2.15;;;8.50;84.90;;;;;;5035078;28;20072;-83
2022/11/22 10:59:57;;;;;;;4.45;1.92;;;8.50;84.60;;;;;;5047843;28;20710;-80
2022/11/22 11:02:47;;;;;;;9.50;2.28;;;8.60;84.60;;;;;;5043204;28;20017;-80
2022/11/22 11:05:19;;;;;;;5.90;2.25;;;8.70;84.50;;;;;;5036891;28;20124;-79
2022/11/22 11:07:51;;;;;;;5.30;2.20;;;8.80;84.20;;;;;;5040146;28;20036;-78
2022/11/22 11:10:25;;;;;;;5.93;2.67;;;8.80;84.00;;;;;;5047661;28;20032;-77
2022/11/22 11:12:57;;;;;;;6.65;3.17;;;9.00;84.20;;;;;;5037586;28;20078;-83
2022/11/22 11:15:26;;;;;;;9.65;4.68;;;9.20;83.40;;;;;;5038126;28;20516;-83
2022/11/22 11:17:59;;;;;;;5.22;2.95;;;9.20;83.20;;;;;;5046242;28;20053;-84
2022/11/22 11:20:27;;;;;;;5.00;2.25;;;9.10;82.90;;;;;;5038223;28;20098;-78
2022/11/22 11:22:53;;;;;;;6.80;3.90;;;9.10;83.10;;;;;;5053208;28;20033;-78
2022/11/22 11:25:29;;;;;;;6.57;3.53;;;9.10;83.70;;;;;;5036544;28;20579;-77
2022/11/22 11:27:59;;;;;;;6.75;4.20;;;9.10;83.80;;;;;;5034138;28;20053;-79
2022/11/22 11:30:25;;;;;;;6.68;3.20;;;9.20;83.90;;;;;;5036143;28;20045;-77
2022/11/22 11:32:53;;;;;;;6.10;3.17;;;9.20;83.80;;;;;;5038629;28;20134;-80
2022/11/22 11:35:25;;;;;;;5.35;2.30;;;9.30;83.70;;;;;;5037872;28;20041;-78
2022/11/22 11:37:51;;;;;;;5.68;2.75;;;9.40;83.20;;;;;;5035349;28;20049;-78
2022/11/22 11:40:31;;;;;;;5.90;2.50;;;9.30;83.40;;;;;;5033871;28;20026;-79
2022/11/22 11:43:26;;;;;;;5.47;2.97;;;9.30;83.40;;;;;;5036954;28;20033;-79
2022/11/22 11:45:52;;;;;;;5.53;2.45;;;9.20;83.70;;;;;;5023607;28;20083;-77
2022/11/22 11:48:33;;;;;;;2.88;1.85;;;9.20;84.00;;;;;;5041456;28;20568;-78
2022/11/22 11:51:17;;;;;;;5.15;2.47;;;9.40;84.10;;;;;;5037420;28;20045;-80
2022/11/22 11:54:00;;;;;;;5.82;2.05;;;9.30;84.00;;;;;;5035557;28;20126;-76
2022/11/22 11:56:33;;;;;;;7.93;3.47;;;9.30;84.00;;;;;;5036646;28;20044;-78
2022/11/22 11:59:06;;;;;;;8.35;3.17;;;9.40;84.20;;;;;;5037459;28;20123;-77
2022/11/22 12:01:34;;;;;;;6.72;2.55;;;9.50;83.60;;;;;;5036233;28;20247;-78
2022/11/22 12:04:03;;;;;;;6.05;2.95;;;9.50;83.60;;;;;;5041404;28;20032;-80
2022/11/22 12:06:31;;;;;;;5.97;2.10;;;9.40;84.00;;;;;;5040910;28;20041;-77
2022/11/22 12:08:58;;;;;;;6.20;2.58;;;9.30;84.10;;;;;;5042040;28;20123;-79
2022/11/22 12:11:39;;;;;;;4.57;2.40;;;9.40;84.30;;;;;;5038593;28;20063;-84
2022/11/22 12:14:10;;;;;;;7.38;2.88;;;9.40;84.30;;;;;;5044736;28;20044;-79
2022/11/22 12:16:43;;;;;;;5.65;2.58;;;9.50;84.20;;;;;;5039409;28;20041;-77
2022/11/22 12:19:45;;;;;;;5.95;2.00;;;9.60;84.00;;;;;;5038830;28;20041;-80
2022/11/22 12:22:24;;;;;;;5.00;1.90;;;9.70;84.00;;;;;;5043945;28;20032;-82
2022/11/22 12:25:19;;;;;;;3.75;2.05;;;9.50;84.20;;;;;;5047011;28;20037;-81
2022/11/22 12:27:44;;;;;;;5.47;2.50;;;9.60;84.30;;;;;;5041956;28;20044;-78
2022/11/22 12:30:11;;;;;;;5.18;2.42;;;9.60;84.40;;;;;;5041932;28;20055;-82
2022/11/22 12:32:55;;;;;;;9.30;2.55;;;9.70;84.50;;;;;;5033683;28;20064;-80
2022/11/22 12:35:24;;;;;;;4.90;2.40;;;9.80;84.20;;;;;;5036621;28;21199;-79
2022/11/22 12:38:11;;;;;;;5.68;2.22;;;9.70;84.30;;;;;;5042872;28;20393;-78
2022/11/22 12:40:40;;;;;;;4.95;2.50;;;9.80;84.60;;;;;;5046585;28;20037;-84
2022/11/22 12:43:19;;;;;;;6.05;2.30;;;9.70;85.00;;;;;;5041328;28;20044;-78
2022/11/22 12:45:52;;;;;;;4.40;2.40;;;9.70;85.70;;;;;;5046237;28;20049;-83
2022/11/22 12:48:28;;;;;;;5.07;2.75;;;9.60;86.30;;;;;;5042216;28;20362;-83
2022/11/22 12:51:00;;;;;;;4.03;2.10;;;9.60;86.80;;;;;;5047020;28;20055;-82
2022/11/22 12:53:34;;;;;;;6.72;2.55;;;9.60;86.90;;;;;;5047866;28;20117;-81
2022/11/22 12:56:21;;;;;;;5.75;2.83;;;9.70;87.10;;;;;;5050374;28;20131;-81
2022/11/22 12:59:13;;;;;;;7.38;2.60;;;9.80;87.30;;;;;;5053133;28;20060;-83
2022/11/22 13:01:44;;;;;;;7.15;2.53;;;9.80;87.50;;;;;;5042215;28;20334;-75
2022/11/22 13:04:09;;;;;;;8.52;2.60;;;9.90;87.20;;;;;;5061159;28;20052;-80
2022/11/22 13:06:50;;;;;;;6.00;2.90;;;10.10;87.20;;;;;;5057443;28;20041;-85
2022/11/22 13:09:25;;;;;;;5.50;2.55;;;10.10;86.80;;;;;;5059120;28;20040;-75
2022/11/22 13:12:17;;;;;;;;;;;10.20;86.20;;;;;;5051095;28;20087;-75
2022/11/22 13:14:51;;;;;;;4.97;2.00;;;10.10;86.00;;;;;;5043340;28;19919;-75
2022/11/22 13:17:17;;;;;;;6.13;2.58;;;10.10;85.70;;;;;;5061611;28;20060;-76